Baldwin, West Virginia
Current Conditions -  °F | °C
As of 11:35 AM on Saturday 25 Oct 2014 (Local Time) from KW22 Reporting Station
Broken Clouds Broken Clouds  
Wind Chill: 55°   Ceiling: 3800
Heat Index: 55°   Visibility: 10mi
Dew Point: 43°   Wind: 12mph
Humidity: 63%   Direction: 200°SSW
Pressure: 30.02"   Gusts: 18mph
Location:  38.919°N, 80.8209°W
Report Text: KW22 251535Z AUTO 20010G16KT 10SM BKN038 BKN090 13/06 A3002 RMK AO2
Loading
Personal Weather Stations






























Interactive Weather Map
Tropical Storm Tracking
New forecast layout! Learn more

10-Day Weather Forecast

Advertisements
Track Severe Weather on mobile